CheckWX is a tool to help pilots better visualize weather data.  It is not intended as a substitute for an official pre-flight weather briefing.

02:21:21 UTC

PAPG TAF
Petersburg James A Johnson Airport
Petersburg, Alaska, USA
PAPG 122335Z 1300/1324 VRB04KT P6SM -RA BKN022 OVC040 FM130900 VRB02KT 3SM -RA OVC015 FM131500 11006KT 5SM -SHRA BR SCT025 OVC050 FM132000 10006KT P6SM VCSH BKN030 OVC050 AMD LTD TO CLD VIS AND WIND 1306/1315

Dec-13@
00:00 UTC

Dec-13 @ 00:00 UTC

Dec-13@
09:00 UTC

Dec-13 @ 09:00 UTC

PAPG 122335Z 1300/1324 VRB04KT P6SM -RA BKN022 OVC040
Wind
  • Variable at 4 KTS
Conditions
Light Rain
Cloud Levels
  • Broken at 2,200' AGL
  • Overcast at 4,000' AGL

Dec-13@
09:00 UTC

Dec-13 @ 09:00 UTC

Dec-13@
15:00 UTC

Dec-13 @ 15:00 UTC

FM130900 VRB02KT 3SM -RA OVC015

From

From Standard forecast or significant change

Wind
  • Variable at 2 KTS
Conditions
Light Rain
Cloud Levels
  • Overcast at 1,500' AGL

Dec-13@
15:00 UTC

Dec-13 @ 15:00 UTC

Dec-13@
20:00 UTC

Dec-13 @ 20:00 UTC

FM131500 11006KT 5SM -SHRA BR SCT025 OVC050

From

From Standard forecast or significant change

Wind
  • 110° at 6 KTS
Conditions
Light Rain, Mist
Cloud Levels
  • Scattered at 2,500' AGL
  • Overcast at 5,000' AGL

Dec-13@
20:00 UTC

Dec-13 @ 20:00 UTC

Dec-14@
00:00 UTC

Dec-14 @ 00:00 UTC

FM132000 10006KT P6SM VCSH BKN030 OVC050 AMD LTD TO CLD VIS AND WIND 1306/1315

From

From Standard forecast or significant change

Wind
  • 100° at 6 KTS
Cloud Levels
  • Broken at 3,000' AGL
  • Overcast at 5,000' AGL